Time;durP1;ratioP1;P1;durP2;ratioP2;P2;SDS_P1;SDS_P2;PMS_P1;PMS_P2;Temp;Humidity;BMP_temperature;BMP_pressure;BME280_temperature;BME280_humidity;BME280_pressure;Samples;Min_cycle;Max_cycle;Signal;HPM_P1;HPM_P2
2021/10/06 00:00:42;;;;;;;12.00;1.67;;;12.00;99.90;;;;;;5050503;28;20206;-75
2021/10/06 00:03:07;;;;;;;4.78;1.48;;;11.90;99.90;;;;;;5051969;28;20163;-77
2021/10/06 00:05:33;;;;;;;8.93;1.50;;;11.90;99.90;;;;;;5051863;28;20210;-75
2021/10/06 00:07:59;;;;;;;4.53;1.23;;;11.90;99.90;;;;;;5054442;28;20166;-75
2021/10/06 00:10:24;;;;;;;7.53;1.48;;;11.80;99.90;;;;;;5055940;28;20284;-75
2021/10/06 00:12:50;;;;;;;4.90;1.33;;;11.80;99.90;;;;;;5055625;28;20175;-75
2021/10/06 00:15:16;;;;;;;7.00;1.63;;;12.00;99.90;;;;;;5055894;28;20208;-77
2021/10/06 00:17:42;;;;;;;5.63;1.77;;;11.90;99.90;;;;;;5055548;28;20500;-75
2021/10/06 00:20:10;;;;;;;7.53;1.25;;;12.00;99.90;;;;;;5055387;28;20549;-75
2021/10/06 00:22:36;;;;;;;5.68;1.50;;;12.00;99.90;;;;;;5055056;28;20190;-75
2021/10/06 00:25:02;;;;;;;11.00;2.08;;;11.80;99.90;;;;;;5055595;28;20635;-75
2021/10/06 00:27:27;;;;;;;2.97;1.30;;;11.80;99.90;;;;;;5054420;28;20170;-75
2021/10/06 00:29:53;;;;;;;13.85;2.20;;;11.80;99.90;;;;;;5055336;28;20183;-75
2021/10/06 00:32:19;;;;;;;9.75;2.22;;;11.90;99.90;;;;;;5055144;28;20163;-75
2021/10/06 00:34:44;;;;;;;10.95;1.67;;;11.90;99.90;;;;;;5054992;28;20182;-75
2021/10/06 00:37:10;;;;;;;13.80;1.65;;;11.80;99.90;;;;;;5054887;28;20494;-75
2021/10/06 00:39:36;;;;;;;10.60;1.63;;;11.80;99.90;;;;;;5054963;28;20562;-75
2021/10/06 00:42:01;;;;;;;6.85;1.42;;;11.80;99.90;;;;;;5055415;28;20598;-77
2021/10/06 00:44:33;;;;;;;4.93;1.30;;;11.80;99.90;;;;;;5054810;28;20210;-75
2021/10/06 00:46:59;;;;;;;10.07;1.50;;;11.80;99.90;;;;;;5055261;28;20202;-75
2021/10/06 00:49:24;;;;;;;2.42;1.10;;;11.80;99.90;;;;;;5054739;28;20191;-75
2021/10/06 00:51:50;;;;;;;11.85;2.53;;;11.90;99.90;;;;;;5055197;28;20224;-76
2021/10/06 00:54:16;;;;;;;6.60;1.38;;;11.80;99.90;;;;;;5055186;28;20273;-75
2021/10/06 00:56:41;;;;;;;9.77;1.20;;;11.80;99.90;;;;;;5055185;28;20171;-76
2021/10/06 00:59:07;;;;;;;7.93;1.23;;;11.70;99.90;;;;;;5055148;28;20587;-76
2021/10/06 01:01:33;;;;;;;6.75;1.33;;;11.70;99.90;;;;;;5053557;28;20206;-76
2021/10/06 01:03:58;;;;;;;6.43;1.38;;;11.80;99.90;;;;;;5054610;28;20182;-76
2021/10/06 01:06:24;;;;;;;4.15;1.15;;;11.80;99.90;;;;;;5053707;28;20353;-76
2021/10/06 01:08:50;;;;;;;5.25;1.38;;;11.70;99.90;;;;;;5054931;28;20198;-76
2021/10/06 01:11:16;;;;;;;11.63;1.65;;;11.80;99.90;;;;;;5053418;28;20175;-76
2021/10/06 01:13:42;;;;;;;10.57;1.63;;;11.70;99.90;;;;;;5054713;28;20164;-76
2021/10/06 01:16:07;;;;;;;10.70;1.60;;;11.70;99.90;;;;;;5054600;28;20163;-76
2021/10/06 01:18:33;;;;;;;10.05;1.33;;;11.80;99.90;;;;;;5053275;28;20254;-76
2021/10/06 01:21:12;;;;;;;5.47;1.20;;;11.80;99.90;;;;;;5054003;28;20211;-77
2021/10/06 01:23:38;;;;;;;5.22;2.13;;;11.90;99.90;;;;;;5051696;28;20178;-76
2021/10/06 01:26:04;;;;;;;4.35;1.20;;;11.70;99.90;;;;;;5054591;28;20202;-76
2021/10/06 01:28:37;;;;;;;9.93;1.40;;;11.70;99.90;;;;;;5054436;28;20155;-77
2021/10/06 01:31:03;;;;;;;10.50;1.83;;;11.70;99.90;;;;;;5053248;28;20197;-76
2021/10/06 01:33:29;;;;;;;9.20;1.40;;;11.70;99.90;;;;;;5054886;28;20172;-79
2021/10/06 01:35:55;;;;;;;6.10;1.20;;;11.70;99.90;;;;;;5055046;28;20305;-79
2021/10/06 01:38:21;;;;;;;6.88;1.85;;;11.60;99.90;;;;;;5054704;28;20193;-80
2021/10/06 01:40:47;;;;;;;6.43;1.45;;;11.60;99.90;;;;;;5054859;28;20215;-77
2021/10/06 01:43:12;;;;;;;8.20;1.65;;;11.50;99.90;;;;;;5054735;28;20175;-78
2021/10/06 01:45:41;;;;;;;8.95;1.33;;;11.50;99.90;;;;;;5054771;28;20175;-80
2021/10/06 01:48:09;;;;;;;3.85;1.40;;;11.50;99.90;;;;;;5056361;28;20182;-76
2021/10/06 01:50:37;;;;;;;6.00;0.90;;;11.60;99.90;;;;;;5055601;28;20195;-77
2021/10/06 01:53:04;;;;;;;4.03;1.15;;;11.60;99.90;;;;;;5054434;28;20503;-76
2021/10/06 01:55:32;;;;;;;9.85;1.20;;;11.70;99.90;;;;;;5054255;28;20213;-77
2021/10/06 01:58:04;;;;;;;10.63;1.55;;;11.70;99.90;;;;;;5054602;28;20639;-77
2021/10/06 02:00:31;;;;;;;4.90;1.85;;;11.70;99.90;;;;;;5053873;28;20249;-76
2021/10/06 02:02:57;;;;;;;6.05;1.30;;;11.80;99.90;;;;;;5057633;28;20171;-76
2021/10/06 02:05:23;;;;;;;7.55;1.35;;;11.80;99.90;;;;;;5058304;28;20174;-76
2021/10/06 02:07:48;;;;;;;7.10;1.38;;;12.00;99.90;;;;;;5054000;28;20619;-75
2021/10/06 02:10:14;;;;;;;4.45;1.63;;;11.90;99.90;;;;;;5054696;28;20244;-76
2021/10/06 02:12:40;;;;;;;7.50;1.20;;;11.90;99.90;;;;;;5055962;28;20624;-76
2021/10/06 02:15:06;;;;;;;7.32;1.45;;;11.90;99.90;;;;;;5056083;28;20167;-77
2021/10/06 02:17:32;;;;;;;1.70;0.98;;;11.90;99.90;;;;;;5059106;28;20170;-76
2021/10/06 02:19:58;;;;;;;6.97;1.52;;;11.90;99.90;;;;;;5060360;28;20204;-77
2021/10/06 02:22:24;;;;;;;4.97;1.42;;;11.80;99.90;;;;;;5061359;28;20179;-77
2021/10/06 02:24:49;;;;;;;2.00;0.90;;;11.90;99.90;;;;;;5062077;28;20167;-78
2021/10/06 02:27:15;;;;;;;5.20;1.20;;;11.90;99.90;;;;;;5058468;28;20687;-78
2021/10/06 02:29:41;;;;;;;8.73;1.60;;;12.00;99.90;;;;;;5059760;28;20202;-77
2021/10/06 02:32:06;;;;;;;1.63;1.02;;;12.10;99.90;;;;;;5060331;28;20165;-77
2021/10/06 02:34:32;;;;;;;5.40;0.98;;;12.00;99.90;;;;;;5057069;28;20198;-76
2021/10/06 02:36:58;;;;;;;7.85;1.45;;;12.00;99.90;;;;;;5057787;28;20194;-78
2021/10/06 02:39:24;;;;;;;8.40;1.23;;;12.00;99.90;;;;;;5056421;28;20187;-76
2021/10/06 02:41:49;;;;;;;14.27;1.30;;;12.10;99.90;;;;;;5058516;28;20654;-76
2021/10/06 02:44:15;;;;;;;4.03;1.25;;;12.10;99.90;;;;;;5058762;28;20178;-78
2021/10/06 02:46:41;;;;;;;5.13;1.30;;;12.20;99.90;;;;;;5056239;28;20179;-78
2021/10/06 02:49:06;;;;;;;5.10;0.90;;;12.30;99.90;;;;;;5056398;28;20187;-78
2021/10/06 02:51:33;;;;;;;5.88;1.17;;;12.10;99.90;;;;;;5056113;28;20612;-77
2021/10/06 02:53:59;;;;;;;3.47;1.00;;;12.10;99.90;;;;;;5056022;28;20174;-76
2021/10/06 02:56:24;;;;;;;14.95;2.38;;;12.10;99.90;;;;;;5056422;28;20175;-77
2021/10/06 02:58:50;;;;;;;8.77;1.50;;;12.10;99.90;;;;;;5056945;28;20624;-77
2021/10/06 03:01:16;;;;;;;5.03;1.70;;;12.10;99.90;;;;;;5055673;28;20217;-77
2021/10/06 03:03:41;;;;;;;3.08;0.90;;;12.00;99.90;;;;;;5057538;28;20619;-76
2021/10/06 03:06:07;;;;;;;6.65;1.30;;;12.00;99.90;;;;;;5055908;28;20167;-76
2021/10/06 03:08:33;;;;;;;8.88;1.33;;;12.20;99.90;;;;;;5056568;28;20163;-78
2021/10/06 03:11:00;;;;;;;12.07;1.30;;;12.20;99.90;;;;;;5055655;28;20241;-78
2021/10/06 03:13:26;;;;;;;10.35;1.15;;;12.10;99.90;;;;;;5056172;28;20163;-76
2021/10/06 03:15:56;;;;;;;7.68;1.17;;;12.10;99.90;;;;;;5055778;28;20179;-76
2021/10/06 03:18:22;;;;;;;5.07;0.90;;;12.20;99.90;;;;;;5055301;28;20209;-79
2021/10/06 03:20:47;;;;;;;5.20;1.30;;;12.20;99.90;;;;;;5053436;28;20210;-76
2021/10/06 03:23:13;;;;;;;5.50;1.10;;;12.30;99.90;;;;;;5052747;28;20174;-76
2021/10/06 03:25:39;;;;;;;4.25;0.90;;;12.20;99.90;;;;;;5051423;28;20211;-79
2021/10/06 03:28:04;;;;;;;8.32;1.67;;;12.20;99.90;;;;;;5052439;28;20201;-78
2021/10/06 03:30:30;;;;;;;9.38;1.33;;;12.00;99.90;;;;;;5051184;28;20187;-77
2021/10/06 03:32:56;;;;;;;6.65;1.25;;;12.00;99.90;;;;;;5052568;28;20274;-77
2021/10/06 03:35:22;;;;;;;5.75;0.70;;;12.00;99.90;;;;;;5052604;28;20164;-77
2021/10/06 03:37:49;;;;;;;1.33;0.77;;;12.10;99.90;;;;;;5051802;28;20527;-77
2021/10/06 03:40:15;;;;;;;2.95;1.08;;;12.10;99.90;;;;;;5054486;28;20203;-76
2021/10/06 03:42:41;;;;;;;6.05;1.10;;;12.20;99.90;;;;;;5056298;28;20190;-76
2021/10/06 03:45:09;;;;;;;2.58;0.80;;;12.20;99.90;;;;;;5058172;28;20651;-76
2021/10/06 03:47:35;;;;;;;6.70;0.98;;;12.10;99.90;;;;;;5059011;28;20171;-75
2021/10/06 03:50:02;;;;;;;4.50;1.23;;;12.20;99.90;;;;;;5060254;28;20244;-76
2021/10/06 03:52:27;;;;;;;3.95;1.02;;;12.10;99.90;;;;;;5067702;28;20232;-77
2021/10/06 03:54:53;;;;;;;4.82;0.85;;;12.10;99.90;;;;;;5075890;28;20168;-77
2021/10/06 03:57:18;;;;;;;9.07;1.73;;;12.00;99.90;;;;;;5076029;28;20187;-75
2021/10/06 03:59:44;;;;;;;4.18;1.33;;;12.00;99.90;;;;;;5075472;28;20226;-78
2021/10/06 04:02:10;;;;;;;4.60;1.75;;;12.10;99.90;;;;;;5074469;28;20174;-76
2021/10/06 04:04:36;;;;;;;5.75;1.10;;;12.10;99.90;;;;;;5066943;28;20166;-77
2021/10/06 04:07:02;;;;;;;5.45;1.40;;;12.20;99.90;;;;;;5056528;28;20163;-77
2021/10/06 04:09:28;;;;;;;6.40;0.93;;;12.10;99.90;;;;;;5056572;28;20221;-76
2021/10/06 04:11:53;;;;;;;15.02;1.10;;;12.20;99.90;;;;;;5056302;28;20171;-76
2021/10/06 04:14:19;;;;;;;5.00;1.15;;;12.10;99.90;;;;;;5056194;28;20163;-76
2021/10/06 04:16:45;;;;;;;2.72;0.88;;;12.00;99.90;;;;;;5056244;28;20175;-76
2021/10/06 04:19:10;;;;;;;7.88;1.60;;;11.90;99.90;;;;;;5055758;28;20470;-77
2021/10/06 04:21:36;;;;;;;5.05;0.75;;;12.00;99.90;;;;;;5055760;28;20218;-76
2021/10/06 04:24:01;;;;;;;10.57;1.30;;;12.10;99.90;;;;;;5055768;28;20666;-76
2021/10/06 04:26:27;;;;;;;6.07;0.90;;;12.20;99.90;;;;;;5055730;28;20199;-77
2021/10/06 04:28:53;;;;;;;3.35;1.27;;;12.20;99.90;;;;;;5055530;28;20163;-77
2021/10/06 04:31:19;;;;;;;1.73;1.00;;;12.30;99.90;;;;;;5055596;28;20178;-81
2021/10/06 04:33:46;;;;;;;4.38;1.10;;;12.30;99.90;;;;;;5055581;28;20167;-77
2021/10/06 04:36:12;;;;;;;8.13;1.20;;;12.30;99.90;;;;;;5055511;28;20594;-76
2021/10/06 04:38:39;;;;;;;10.60;1.60;;;12.30;99.90;;;;;;5055331;28;20198;-75
2021/10/06 04:41:05;;;;;;;2.58;1.00;;;12.30;99.90;;;;;;5054264;28;20233;-77
2021/10/06 04:43:30;;;;;;;4.43;1.00;;;12.20;99.90;;;;;;5055413;28;20186;-78
2021/10/06 04:45:56;;;;;;;8.55;1.17;;;12.20;99.90;;;;;;5055403;28;20213;-80
2021/10/06 04:48:22;;;;;;;6.22;1.17;;;12.20;99.90;;;;;;5055180;28;20256;-78
2021/10/06 04:50:47;;;;;;;8.60;2.10;;;12.10;99.90;;;;;;5055314;28;20183;-77
2021/10/06 04:53:13;;;;;;;1.80;0.93;;;12.10;99.90;;;;;;5053911;28;20209;-78
2021/10/06 04:55:39;;;;;;;3.10;1.00;;;12.10;99.90;;;;;;5055187;28;20254;-80
2021/10/06 04:58:05;;;;;;;7.00;1.13;;;12.10;99.90;;;;;;5055797;28;20163;-76
2021/10/06 05:00:30;;;;;;;1.40;0.80;;;12.10;99.90;;;;;;5055880;28;20202;-75
2021/10/06 05:03:07;;;;;;;4.40;1.00;;;12.00;99.90;;;;;;5055078;28;20560;-81
2021/10/06 05:05:34;;;;;;;3.92;1.08;;;12.10;99.90;;;;;;5055220;28;20167;-76
2021/10/06 05:07:59;;;;;;;6.07;1.30;;;12.10;99.90;;;;;;5055425;28;20674;-76
2021/10/06 05:10:25;;;;;;;5.03;1.70;;;12.10;99.90;;;;;;5055605;28;20184;-77
2021/10/06 05:12:50;;;;;;;7.38;1.67;;;12.10;99.90;;;;;;5055361;28;20171;-78
2021/10/06 05:15:16;;;;;;;9.07;0.98;;;12.10;99.90;;;;;;5054950;28;20171;-77
2021/10/06 05:17:42;;;;;;;3.35;0.73;;;12.20;99.90;;;;;;5055183;28;20536;-78
2021/10/06 05:20:08;;;;;;;2.22;0.80;;;12.20;99.90;;;;;;5055116;28;20207;-78
2021/10/06 05:22:33;;;;;;;4.88;0.93;;;12.20;99.90;;;;;;5055295;28;20167;-77
2021/10/06 05:24:59;;;;;;;8.15;0.90;;;12.20;99.90;;;;;;5055118;28;20194;-78
2021/10/06 05:27:25;;;;;;;2.42;0.90;;;12.20;99.90;;;;;;5054741;28;20167;-77
2021/10/06 05:29:50;;;;;;;14.13;1.30;;;12.20;99.90;;;;;;5054766;28;20583;-80
2021/10/06 05:32:16;;;;;;;11.23;1.40;;;12.20;99.90;;;;;;5055257;28;20207;-77
2021/10/06 05:34:41;;;;;;;4.05;0.93;;;12.30;99.90;;;;;;5054772;28;20175;-77
2021/10/06 05:37:07;;;;;;;1.63;0.80;;;12.20;99.90;;;;;;5054528;28;20184;-76
2021/10/06 05:39:33;;;;;;;7.70;1.17;;;12.10;99.90;;;;;;5054334;28;20187;-76
2021/10/06 05:41:58;;;;;;;8.80;1.33;;;12.20;99.90;;;;;;5053279;28;20240;-76
2021/10/06 05:44:24;;;;;;;5.00;0.90;;;12.20;99.90;;;;;;5055113;28;20210;-77
2021/10/06 05:46:50;;;;;;;4.78;1.00;;;12.30;99.90;;;;;;5054435;28;20172;-77
2021/10/06 05:49:15;;;;;;;5.47;1.10;;;12.30;99.90;;;;;;5054003;28;20187;-77
2021/10/06 05:51:41;;;;;;;7.63;1.13;;;12.20;99.90;;;;;;5054041;28;20167;-77
2021/10/06 05:54:07;;;;;;;10.73;1.63;;;12.10;99.90;;;;;;5054000;28;20218;-76
2021/10/06 05:56:32;;;;;;;6.00;1.23;;;12.10;99.90;;;;;;5053843;28;20178;-76
2021/10/06 05:58:58;;;;;;;3.75;1.08;;;12.00;99.90;;;;;;5053414;28;20612;-77
2021/10/06 06:01:26;;;;;;;4.55;1.30;;;12.00;99.90;;;;;;5053477;28;20211;-77
2021/10/06 06:03:53;;;;;;;4.88;1.30;;;11.90;99.90;;;;;;5053568;28;20528;-78
2021/10/06 06:06:18;;;;;;;5.55;1.27;;;11.90;99.90;;;;;;5052651;28;20167;-77
2021/10/06 06:08:44;;;;;;;6.00;1.10;;;12.00;99.90;;;;;;5052863;28;20221;-77
2021/10/06 06:11:10;;;;;;;4.47;1.25;;;12.10;99.90;;;;;;5052041;28;20197;-83
2021/10/06 06:13:35;;;;;;;6.93;1.30;;;12.10;99.90;;;;;;5052129;28;20175;-78
2021/10/06 06:16:01;;;;;;;3.53;1.52;;;12.00;99.90;;;;;;5051880;28;20258;-83
2021/10/06 06:18:27;;;;;;;7.05;1.20;;;12.10;99.90;;;;;;5053043;28;20168;-81
2021/10/06 06:20:53;;;;;;;7.97;1.00;;;12.00;99.90;;;;;;5052958;28;20211;-79
2021/10/06 06:23:19;;;;;;;4.07;1.05;;;12.00;99.90;;;;;;5053073;28;20168;-80
2021/10/06 06:25:44;;;;;;;3.50;1.33;;;12.00;99.90;;;;;;5052876;28;20171;-78
2021/10/06 06:28:10;;;;;;;12.05;1.95;;;12.00;99.90;;;;;;5052570;28;20627;-76
2021/10/06 06:30:36;;;;;;;4.90;1.15;;;12.00;99.90;;;;;;5052370;28;20187;-77
2021/10/06 06:33:02;;;;;;;2.95;1.33;;;12.00;99.90;;;;;;5052343;28;20212;-79
2021/10/06 06:35:28;;;;;;;3.85;1.10;;;12.00;99.90;;;;;;5050944;28;20220;-77
2021/10/06 06:37:54;;;;;;;6.00;1.15;;;12.00;99.90;;;;;;5052179;28;20175;-80
2021/10/06 06:40:20;;;;;;;7.07;1.58;;;12.00;99.90;;;;;;5052474;28;20210;-80
2021/10/06 06:42:45;;;;;;;4.60;1.15;;;11.90;99.90;;;;;;5051149;28;20171;-79
2021/10/06 06:45:11;;;;;;;6.88;1.27;;;11.90;99.90;;;;;;5052531;28;20193;-76
2021/10/06 06:47:39;;;;;;;8.85;1.00;;;12.00;99.90;;;;;;5052680;28;20171;-76
2021/10/06 06:50:06;;;;;;;8.02;2.10;;;11.90;99.90;;;;;;5052525;28;20717;-77
2021/10/06 06:52:31;;;;;;;15.68;1.38;;;11.90;99.90;;;;;;5052197;28;20189;-80
2021/10/06 06:54:57;;;;;;;3.40;1.00;;;11.80;99.90;;;;;;5052378;28;20213;-76
2021/10/06 06:57:23;;;;;;;5.13;1.40;;;11.80;99.90;;;;;;5052344;28;20167;-75
2021/10/06 06:59:49;;;;;;;7.40;1.52;;;11.70;99.90;;;;;;5052197;28;20717;-76
2021/10/06 07:02:14;;;;;;;3.78;1.75;;;11.80;99.90;;;;;;5052064;28;20167;-76
2021/10/06 07:04:40;;;;;;;11.25;1.60;;;11.90;99.90;;;;;;5050865;28;20665;-76
2021/10/06 07:07:06;;;;;;;4.85;1.42;;;12.10;99.90;;;;;;5051976;28;20175;-75
2021/10/06 07:09:35;;;;;;;8.93;1.60;;;12.20;99.90;;;;;;5051935;28;20666;-76
2021/10/06 07:12:01;;;;;;;2.67;1.02;;;12.00;99.90;;;;;;5052366;28;20210;-76
2021/10/06 07:14:26;;;;;;;2.60;1.27;;;11.80;99.90;;;;;;5052118;28;20536;-77
2021/10/06 07:16:52;;;;;;;1.55;1.20;;;11.90;99.90;;;;;;5051332;28;20525;-77
2021/10/06 07:19:17;;;;;;;3.53;1.40;;;11.90;99.90;;;;;;5051584;28;20183;-79
2021/10/06 07:21:44;;;;;;;4.72;1.58;;;12.00;99.90;;;;;;5052017;28;20214;-75
2021/10/06 07:24:12;;;;;;;6.40;1.25;;;12.00;99.90;;;;;;5050842;28;20524;-75
2021/10/06 07:26:38;;;;;;;2.00;1.13;;;11.90;99.90;;;;;;5051896;28;20517;-75
2021/10/06 07:29:03;;;;;;;7.07;1.42;;;11.90;99.90;;;;;;5051882;28;20228;-75
2021/10/06 07:31:29;;;;;;;3.90;1.08;;;11.90;99.90;;;;;;5051759;28;20615;-77
2021/10/06 07:33:57;;;;;;;10.05;1.50;;;12.00;99.90;;;;;;5052127;28;20487;-76
2021/10/06 07:36:24;;;;;;;9.00;2.15;;;11.90;99.90;;;;;;5050640;28;20174;-77
2021/10/06 07:38:51;;;;;;;5.35;1.70;;;12.00;99.90;;;;;;5051905;28;20175;-79
2021/10/06 07:41:17;;;;;;;8.88;1.60;;;12.00;99.90;;;;;;5051911;28;20323;-76
2021/10/06 07:43:42;;;;;;;9.43;1.45;;;11.90;99.90;;;;;;5051804;28;20635;-76
2021/10/06 07:46:08;;;;;;;6.28;1.58;;;11.90;99.90;;;;;;5051613;28;20171;-77
2021/10/06 07:48:34;;;;;;;2.42;1.27;;;11.80;99.90;;;;;;5051749;28;20178;-77
2021/10/06 07:50:59;;;;;;;4.63;1.30;;;11.80;99.90;;;;;;5051758;28;20186;-77
2021/10/06 07:53:25;;;;;;;22.23;1.70;;;11.80;99.90;;;;;;5052146;28;20182;-78
2021/10/06 07:55:50;;;;;;;7.40;2.15;;;11.90;99.90;;;;;;5051898;28;20639;-78
2021/10/06 07:58:16;;;;;;;5.20;1.55;;;12.00;99.90;;;;;;5052044;28;20171;-76
2021/10/06 08:00:42;;;;;;;4.88;1.98;;;12.10;99.90;;;;;;5051393;28;20211;-76
2021/10/06 08:03:07;;;;;;;4.32;2.40;;;12.00;99.90;;;;;;5051603;28;20172;-76
2021/10/06 08:05:33;;;;;;;5.20;1.92;;;12.10;99.90;;;;;;5051590;28;20191;-77
2021/10/06 08:07:59;;;;;;;4.65;2.05;;;12.10;99.90;;;;;;5051386;28;20186;-76
2021/10/06 08:10:24;;;;;;;5.57;1.88;;;12.10;99.90;;;;;;5051051;28;20210;-77
2021/10/06 08:12:50;;;;;;;3.22;2.00;;;12.10;99.90;;;;;;5051910;28;20591;-79
2021/10/06 08:15:16;;;;;;;6.60;2.47;;;12.20;99.90;;;;;;5051686;28;20250;-77
2021/10/06 08:17:41;;;;;;;1.73;1.50;;;12.30;99.90;;;;;;5051502;28;20564;-77
2021/10/06 08:20:07;;;;;;;9.55;1.80;;;12.30;99.90;;;;;;5051648;28;20293;-80
2021/10/06 08:22:33;;;;;;;8.10;2.13;;;12.30;99.90;;;;;;5051535;28;20168;-80
2021/10/06 08:24:59;;;;;;;5.13;2.25;;;12.20;99.90;;;;;;5051308;28;20607;-77
2021/10/06 08:27:24;;;;;;;5.28;2.10;;;12.20;99.90;;;;;;5051434;28;20195;-77
2021/10/06 08:29:50;;;;;;;2.05;1.75;;;12.20;99.90;;;;;;5054458;28;20187;-76
2021/10/06 08:32:16;;;;;;;5.75;1.77;;;12.30;99.90;;;;;;5055261;28;20167;-75
2021/10/06 08:34:41;;;;;;;6.10;2.58;;;12.30;99.90;;;;;;5054964;28;20620;-77
2021/10/06 08:37:07;;;;;;;2.42;2.22;;;12.30;99.90;;;;;;5053917;28;20172;-75
2021/10/06 08:39:33;;;;;;;2.85;1.90;;;12.30;99.90;;;;;;5054454;28;20186;-79
2021/10/06 08:41:58;;;;;;;6.90;1.73;;;12.20;99.90;;;;;;5055164;28;20213;-76
2021/10/06 08:44:32;;;;;;;4.90;2.08;;;12.20;99.90;;;;;;5054797;28;20269;-78
2021/10/06 08:46:57;;;;;;;4.82;2.50;;;12.20;99.90;;;;;;5055401;28;20305;-78
2021/10/06 08:49:23;;;;;;;10.38;2.78;;;12.30;99.90;;;;;;5059554;28;20187;-79
2021/10/06 08:51:49;;;;;;;3.45;2.30;;;12.30;99.90;;;;;;5057735;28;20167;-77
2021/10/06 08:54:14;;;;;;;4.65;2.65;;;12.40;99.90;;;;;;5055030;28;20175;-77
2021/10/06 08:56:40;;;;;;;4.88;2.45;;;12.50;99.90;;;;;;5054564;28;20580;-76
2021/10/06 08:59:06;;;;;;;6.07;2.63;;;12.50;99.90;;;;;;5053830;28;20219;-77
2021/10/06 09:01:31;;;;;;;8.85;2.38;;;12.40;99.90;;;;;;5054746;28;20286;-74
2021/10/06 09:04:04;;;;;;;3.15;2.10;;;12.40;99.90;;;;;;5055510;28;20175;-74
2021/10/06 09:06:35;;;;;;;3.92;1.98;;;12.40;99.90;;;;;;5054049;28;20171;-75
2021/10/06 09:09:18;;;;;;;2.97;2.03;;;12.20;99.90;;;;;;5055043;28;20183;-77
2021/10/06 09:11:49;;;;;;;4.85;2.10;;;12.20;99.90;;;;;;5053800;28;20662;-74
2021/10/06 09:14:16;;;;;;;2.90;2.05;;;12.20;99.90;;;;;;5055175;28;20489;-74
2021/10/06 09:16:42;;;;;;;4.65;1.70;;;12.30;99.90;;;;;;5054761;28;20167;-75
2021/10/06 09:19:09;;;;;;;6.25;1.98;;;12.20;99.90;;;;;;5054797;28;20194;-75
2021/10/06 09:21:52;;;;;;;5.15;2.10;;;12.20;99.90;;;;;;5051520;28;20245;-78
2021/10/06 09:24:18;;;;;;;5.65;2.15;;;12.10;99.90;;;;;;5047710;28;20873;-74
2021/10/06 09:26:43;;;;;;;2.63;1.63;;;12.00;99.90;;;;;;5046000;28;20250;-77
2021/10/06 09:29:22;;;;;;;5.20;2.10;;;12.00;99.90;;;;;;5055521;28;20187;-74
2021/10/06 09:31:47;;;;;;;5.95;2.13;;;12.00;99.90;;;;;;5055113;28;20170;-75
2021/10/06 09:34:13;;;;;;;8.02;2.38;;;12.00;99.90;;;;;;5054546;28;20175;-76
2021/10/06 09:36:39;;;;;;;3.42;2.13;;;12.00;99.90;;;;;;5053625;28;20182;-76
2021/10/06 09:39:09;;;;;;;5.15;2.20;;;12.10;99.90;;;;;;5055076;28;20266;-75
2021/10/06 09:41:45;;;;;;;5.63;1.77;;;12.00;99.90;;;;;;5052598;28;20202;-75
2021/10/06 09:44:31;;;;;;;5.80;1.98;;;12.10;99.90;;;;;;5053658;28;20214;-74
2021/10/06 09:46:58;;;;;;;2.50;1.70;;;12.20;99.90;;;;;;5051116;28;20217;-74
2021/10/06 09:49:28;;;;;;;5.95;2.55;;;12.30;99.90;;;;;;5052235;28;20223;-74
2021/10/06 09:52:11;;;;;;;3.40;1.95;;;12.40;99.90;;;;;;5053330;28;20171;-78
2021/10/06 09:54:37;;;;;;;6.72;3.50;;;12.40;99.90;;;;;;5053584;28;20167;-77
2021/10/06 09:57:03;;;;;;;5.95;2.08;;;12.30;99.90;;;;;;5053311;28;20293;-74
2021/10/06 09:59:29;;;;;;;5.43;2.13;;;12.40;99.90;;;;;;5053766;28;20245;-75
2021/10/06 10:01:59;;;;;;;6.63;2.53;;;12.40;99.90;;;;;;5054399;28;20215;-74
2021/10/06 10:04:27;;;;;;;4.57;2.08;;;12.40;99.90;;;;;;5054066;28;20155;-75
2021/10/06 10:06:53;;;;;;;4.20;3.15;;;12.40;99.90;;;;;;5053329;28;20218;-75
2021/10/06 10:09:20;;;;;;;2.20;2.00;;;12.40;99.90;;;;;;5056512;28;20187;-76
2021/10/06 10:11:47;;;;;;;2.83;2.53;;;12.50;99.90;;;;;;5052680;28;20182;-76
2021/10/06 10:14:12;;;;;;;4.18;2.22;;;12.60;99.90;;;;;;5053392;28;20167;-75
2021/10/06 10:16:39;;;;;;;2.58;2.38;;;12.50;99.90;;;;;;5052089;28;20923;-76
2021/10/06 10:19:12;;;;;;;5.60;2.33;;;12.60;99.90;;;;;;5052551;28;20334;-76
2021/10/06 10:21:42;;;;;;;3.45;2.55;;;12.50;99.90;;;;;;5053798;28;20203;-76
2021/10/06 10:24:24;;;;;;;4.95;2.67;;;12.60;99.90;;;;;;5053429;28;20168;-75
2021/10/06 10:27:06;;;;;;;3.25;2.10;;;12.60;99.90;;;;;;5052752;28;20535;-76
2021/10/06 10:29:42;;;;;;;3.70;2.05;;;12.70;99.90;;;;;;5052836;28;20194;-76
2021/10/06 10:32:17;;;;;;;2.60;2.03;;;12.70;99.90;;;;;;5051895;28;20171;-82
2021/10/06 10:35:01;;;;;;;6.70;3.30;;;12.70;99.90;;;;;;5051432;28;20643;-75
2021/10/06 10:37:45;;;;;;;3.53;3.22;;;12.60;99.90;;;;;;5052858;28;20226;-76
2021/10/06 10:40:29;;;;;;;4.68;2.95;;;12.60;99.90;;;;;;5053029;28;20202;-75
2021/10/06 10:42:59;;;;;;;4.95;2.38;;;12.50;99.90;;;;;;5032341;28;20183;-76
2021/10/06 10:45:47;;;;;;;5.60;3.20;;;12.50;99.90;;;;;;5032140;28;20247;-75
2021/10/06 10:48:21;;;;;;;2.10;1.88;;;12.80;99.90;;;;;;5035966;28;20163;-75
2021/10/06 10:50:46;;;;;;;4.38;2.13;;;12.90;99.90;;;;;;5041007;28;20396;-75
2021/10/06 10:53:19;;;;;;;2.78;2.13;;;12.70;99.90;;;;;;5032866;28;20620;-80
2021/10/06 10:55:56;;;;;;;3.97;1.98;;;12.70;99.90;;;;;;5032766;28;20553;-75
2021/10/06 10:58:31;;;;;;;3.85;3.35;;;12.80;99.90;;;;;;5041363;28;20169;-75
2021/10/06 11:00:58;;;;;;;3.88;2.33;;;12.80;99.90;;;;;;5051745;28;20206;-75
2021/10/06 11:03:24;;;;;;;4.38;2.60;;;12.80;99.90;;;;;;5051314;28;20269;-75
2021/10/06 11:05:56;;;;;;;5.88;3.58;;;13.00;99.90;;;;;;5050961;28;20579;-75
2021/10/06 11:08:35;;;;;;;14.30;4.22;;;13.10;99.90;;;;;;5052062;28;20601;-74
2021/10/06 11:11:13;;;;;;;10.70;4.50;;;13.20;99.90;;;;;;5050677;28;20191;-76
2021/10/06 11:13:47;;;;;;;5.43;2.85;;;13.30;99.90;;;;;;5051713;28;20175;-75
2021/10/06 11:16:14;;;;;;;4.22;2.08;;;13.20;99.90;;;;;;5051412;28;20262;-78
2021/10/06 11:18:54;;;;;;;3.75;2.47;;;13.10;99.90;;;;;;5052233;28;20171;-77
2021/10/06 11:21:37;;;;;;;2.63;1.88;;;13.10;99.90;;;;;;5051542;28;20276;-75
2021/10/06 11:24:20;;;;;;;5.50;2.38;;;13.40;99.90;;;;;;5032257;28;20254;-74
2021/10/06 11:26:47;;;;;;;2.63;2.38;;;13.60;99.90;;;;;;5035142;28;20669;-75
2021/10/06 11:29:13;;;;;;;5.47;2.50;;;13.70;99.90;;;;;;5052550;28;20194;-74
2021/10/06 11:31:39;;;;;;;4.10;2.92;;;13.80;99.90;;;;;;5052334;28;20262;-74
2021/10/06 11:34:16;;;;;;;3.45;2.42;;;13.90;99.90;;;;;;5051757;28;20163;-74
2021/10/06 11:36:50;;;;;;;9.40;3.80;;;13.80;99.90;;;;;;5052219;28;20179;-74
2021/10/06 11:39:16;;;;;;;5.32;2.83;;;13.80;99.90;;;;;;5049691;28;20195;-77
2021/10/06 11:41:46;;;;;;;4.38;3.45;;;14.00;99.90;;;;;;5049617;28;20222;-75
2021/10/06 11:44:28;;;;;;;6.20;2.63;;;14.20;99.90;;;;;;5051961;28;20186;-75
2021/10/06 11:47:03;;;;;;;7.85;2.35;;;14.50;99.90;;;;;;5051277;28;20632;-77
2021/10/06 11:49:31;;;;;;;3.42;3.13;;;14.50;99.90;;;;;;5052667;28;20214;-79
2021/10/06 11:51:58;;;;;;;2.88;2.25;;;14.50;99.90;;;;;;5052097;28;20623;-78
2021/10/06 11:54:25;;;;;;;3.63;3.20;;;14.60;99.90;;;;;;5051922;28;20694;-81
2021/10/06 11:56:59;;;;;;;2.00;1.90;;;14.80;99.90;;;;;;5052683;28;20190;-77
2021/10/06 11:59:27;;;;;;;7.18;2.78;;;14.70;99.90;;;;;;5052133;28;20247;-76
2021/10/06 12:01:54;;;;;;;6.85;2.50;;;14.80;99.90;;;;;;5052737;28;20562;-76
2021/10/06 12:04:27;;;;;;;7.90;3.80;;;14.70;99.90;;;;;;5055220;28;20167;-79
2021/10/06 12:07:01;;;;;;;7.97;3.83;;;14.60;99.90;;;;;;5056953;28;20186;-78
2021/10/06 12:09:39;;;;;;;13.90;3.42;;;14.50;99.90;;;;;;5056728;28;20272;-77
2021/10/06 12:12:14;;;;;;;7.75;3.03;;;14.50;99.90;;;;;;5057174;28;20170;-79
2021/10/06 12:14:51;;;;;;;6.35;2.20;;;14.20;99.90;;;;;;5056747;28;20741;-79
2021/10/06 12:17:25;;;;;;;5.32;2.55;;;14.10;99.90;;;;;;5056969;28;20167;-78
2021/10/06 12:20:06;;;;;;;4.88;2.92;;;14.00;99.90;;;;;;5056815;28;20188;-79
2021/10/06 12:22:34;;;;;;;9.00;3.45;;;14.10;99.90;;;;;;5056643;28;20179;-77
2021/10/06 12:25:01;;;;;;;2.05;1.48;;;14.30;99.90;;;;;;5056914;28;20170;-76
2021/10/06 12:27:29;;;;;;;2.33;1.42;;;14.40;99.90;;;;;;5055890;28;20163;-78
2021/10/06 12:30:15;;;;;;;7.47;2.17;;;14.40;99.90;;;;;;5054778;28;20215;-78
2021/10/06 12:32:44;;;;;;;2.78;2.00;;;14.60;99.90;;;;;;5055267;28;20217;-78
2021/10/06 12:35:13;;;;;;;6.30;2.05;;;14.80;99.90;;;;;;5057093;28;20175;-83
2021/10/06 12:37:57;;;;;;;5.53;2.22;;;14.90;99.90;;;;;;5057147;28;20171;-81
2021/10/06 12:40:43;;;;;;;5.65;3.17;;;14.90;99.90;;;;;;5055115;28;20187;-79
2021/10/06 12:43:18;;;;;;;5.18;1.70;;;15.00;99.90;;;;;;5055121;28;20185;-78
2021/10/06 12:46:04;;;;;;;2.25;1.40;;;14.90;99.90;;;;;;5055950;28;20170;-80
2021/10/06 12:48:44;;;;;;;2.35;1.30;;;14.80;99.90;;;;;;5056236;28;20167;-78